Time;durP1;ratioP1;P1;durP2;ratioP2;P2;SDS_P1;SDS_P2;PMS_P1;PMS_P2;Temp;Humidity;BMP_temperature;BMP_pressure;BME280_temperature;BME280_humidity;BME280_pressure;Samples;Min_cycle;Max_cycle;Signal;HPM_P1;HPM_P2
2022/07/07 04:04:38;;;;;;;2.37;2.17;;;15.50;99.90;;;;;;5451425;22;20542;-68
2022/07/07 04:07:04;;;;;;;1.87;1.77;;;15.70;99.90;;;;;;5034525;28;20391;-67
2022/07/07 04:09:30;;;;;;;2.03;1.93;;;15.70;99.50;;;;;;5035920;28;20257;-67
2022/07/07 04:11:55;;;;;;;2.00;1.83;;;15.80;99.30;;;;;;5035681;28;20427;-68
2022/07/07 04:14:21;;;;;;;2.20;2.10;;;15.90;99.20;;;;;;5032205;28;20198;-68
2022/07/07 04:16:46;;;;;;;2.37;2.27;;;15.90;99.10;;;;;;5035370;28;20178;-68
2022/07/07 04:19:12;;;;;;;1.60;1.50;;;16.00;99.10;;;;;;5036014;28;20221;-68
2022/07/07 04:21:37;;;;;;;4.33;2.43;;;16.10;98.80;;;;;;5035367;28;20205;-68
2022/07/07 04:24:04;;;;;;;2.23;2.03;;;16.20;98.50;;;;;;5035052;28;20182;-68
2022/07/07 04:26:29;;;;;;;2.03;1.93;;;16.20;98.30;;;;;;5034795;28;20170;-67
2022/07/07 04:28:55;;;;;;;2.60;1.70;;;16.30;98.50;;;;;;5034489;28;20783;-67
2022/07/07 04:31:21;;;;;;;3.07;1.93;;;16.40;98.60;;;;;;5035200;28;20594;-67
2022/07/07 04:33:47;;;;;;;1.93;1.83;;;16.50;97.50;;;;;;5033767;28;20561;-67
2022/07/07 04:36:14;;;;;;;2.00;1.43;;;16.60;97.70;;;;;;5035009;28;20451;-67
2022/07/07 04:38:40;;;;;;;2.17;1.97;;;16.60;96.80;;;;;;5035241;28;20166;-67
2022/07/07 04:41:05;;;;;;;2.67;1.83;;;16.70;96.90;;;;;;5034823;28;20464;-69
2022/07/07 04:43:31;;;;;;;2.13;1.90;;;16.70;96.90;;;;;;5034576;28;20210;-68
2022/07/07 04:45:57;;;;;;;4.30;1.77;;;16.80;97.30;;;;;;5034978;28;20174;-67
2022/07/07 04:48:22;;;;;;;1.90;1.80;;;16.80;97.00;;;;;;5035016;28;20231;-66
2022/07/07 04:50:48;;;;;;;1.80;1.70;;;16.80;97.10;;;;;;5033903;28;20170;-68
2022/07/07 04:53:14;;;;;;;2.00;1.90;;;16.90;96.60;;;;;;5034322;28;20623;-68
2022/07/07 04:55:39;;;;;;;1.63;1.47;;;17.00;96.20;;;;;;5034109;28;20175;-67
2022/07/07 04:58:05;;;;;;;1.20;1.20;;;17.00;96.80;;;;;;5034776;28;20183;-67
2022/07/07 05:00:31;;;;;;;1.33;1.23;;;17.20;96.10;;;;;;5034759;28;20516;-68
2022/07/07 05:02:56;;;;;;;1.80;1.70;;;17.20;95.10;;;;;;5033924;28;20206;-68
2022/07/07 05:05:22;;;;;;;3.70;1.40;;;17.30;95.10;;;;;;5034548;28;20222;-67
2022/07/07 05:07:47;;;;;;;1.83;1.70;;;17.40;95.30;;;;;;5034209;28;20203;-68
2022/07/07 05:10:14;;;;;;;1.70;1.60;;;17.60;95.10;;;;;;5034347;28;20254;-67
2022/07/07 05:12:39;;;;;;;1.80;1.57;;;17.70;94.80;;;;;;5034094;28;20259;-68
2022/07/07 05:15:05;;;;;;;1.80;1.50;;;17.90;95.10;;;;;;5033805;28;20477;-67
2022/07/07 05:17:31;;;;;;;3.70;2.10;;;18.10;94.20;;;;;;5033810;28;20237;-68
2022/07/07 05:19:57;;;;;;;1.67;1.57;;;18.20;94.00;;;;;;5034502;28;20407;-67
2022/07/07 05:22:22;;;;;;;2.07;1.87;;;18.40;93.40;;;;;;5033962;28;20238;-68
2022/07/07 05:24:48;;;;;;;2.50;2.00;;;18.40;93.90;;;;;;5032747;28;20280;-69
2022/07/07 05:27:13;;;;;;;4.70;2.20;;;18.50;93.60;;;;;;5032764;28;20227;-67
2022/07/07 05:29:39;;;;;;;2.20;2.07;;;18.40;93.90;;;;;;5034424;28;20176;-67
2022/07/07 05:32:05;;;;;;;5.50;3.77;;;18.40;93.80;;;;;;5034250;28;20490;-68
2022/07/07 05:34:30;;;;;;;7.43;3.10;;;18.50;93.70;;;;;;5033335;28;20206;-66
2022/07/07 05:36:56;;;;;;;2.60;2.20;;;18.60;94.10;;;;;;5033713;28;20417;-65
2022/07/07 05:39:24;;;;;;;3.40;2.20;;;18.60;93.90;;;;;;5031252;28;20185;-68
2022/07/07 05:41:49;;;;;;;2.93;2.73;;;18.60;93.40;;;;;;5032575;28;20285;-63
2022/07/07 05:44:16;;;;;;;2.10;2.00;;;18.60;93.40;;;;;;5033240;28;20481;-68
2022/07/07 05:46:42;;;;;;;3.47;2.80;;;18.60;92.60;;;;;;5033764;28;20772;-67
2022/07/07 05:49:08;;;;;;;2.00;1.90;;;18.60;93.10;;;;;;5033907;28;20405;-65
2022/07/07 05:51:33;;;;;;;2.07;1.97;;;18.60;92.70;;;;;;5032883;28;20236;-67
2022/07/07 05:53:59;;;;;;;2.03;1.80;;;18.50;92.40;;;;;;5033367;28;20197;-68
2022/07/07 05:56:24;;;;;;;1.43;1.33;;;18.50;92.60;;;;;;5033715;28;20197;-64
2022/07/07 05:58:50;;;;;;;2.50;1.27;;;18.60;92.70;;;;;;5033724;28;20180;-65
2022/07/07 06:01:16;;;;;;;2.80;2.00;;;18.60;92.90;;;;;;5033565;28;20171;-65
2022/07/07 06:03:41;;;;;;;1.90;1.67;;;18.70;93.10;;;;;;5032930;28;20575;-67
2022/07/07 06:06:07;;;;;;;3.03;2.67;;;18.70;92.30;;;;;;5033309;28;20189;-68
2022/07/07 06:08:32;;;;;;;8.60;2.90;;;18.90;92.20;;;;;;5033410;28;20262;-66
2022/07/07 06:10:58;;;;;;;2.20;2.00;;;19.20;91.70;;;;;;5033520;28;20503;-66
2022/07/07 06:13:23;;;;;;;1.67;1.57;;;19.60;91.50;;;;;;5032884;28;20190;-66
2022/07/07 06:15:49;;;;;;;3.20;1.70;;;20.00;90.70;;;;;;5032526;28;20189;-67
2022/07/07 06:18:15;;;;;;;1.97;1.70;;;20.30;89.80;;;;;;5033615;28;20170;-66
2022/07/07 06:20:40;;;;;;;1.90;1.67;;;20.40;88.70;;;;;;5033087;28;20614;-66
2022/07/07 06:23:06;;;;;;;1.50;1.40;;;20.50;88.80;;;;;;5032868;28;20206;-66
2022/07/07 06:25:32;;;;;;;1.53;1.53;;;20.60;88.70;;;;;;5033275;28;20178;-67
2022/07/07 06:27:58;;;;;;;1.90;1.80;;;20.70;89.50;;;;;;5033325;28;20186;-66
2022/07/07 06:30:25;;;;;;;2.20;2.10;;;20.80;90.30;;;;;;5032928;28;20409;-69
2022/07/07 06:32:51;;;;;;;1.90;1.80;;;20.90;89.30;;;;;;5031609;28;20423;-65
2022/07/07 06:35:17;;;;;;;1.83;1.73;;;21.00;88.70;;;;;;5032767;28;20448;-69
2022/07/07 06:37:43;;;;;;;4.93;3.70;;;21.20;87.50;;;;;;5033331;28;20227;-66
2022/07/07 06:40:09;;;;;;;2.30;2.10;;;21.20;86.90;;;;;;5032882;28;20482;-69
2022/07/07 06:42:34;;;;;;;3.10;1.70;;;21.20;86.40;;;;;;5032435;28;20272;-68
2022/07/07 06:45:00;;;;;;;1.67;1.57;;;21.20;87.10;;;;;;5030866;28;20449;-67
2022/07/07 06:47:26;;;;;;;1.87;1.37;;;21.40;86.00;;;;;;5032826;28;20652;-68
2022/07/07 06:49:51;;;;;;;2.07;1.80;;;21.60;85.00;;;;;;5031674;28;20182;-68
2022/07/07 06:52:17;;;;;;;5.23;1.87;;;21.80;87.10;;;;;;5036054;28;20271;-67
2022/07/07 06:54:42;;;;;;;2.23;2.03;;;22.10;85.10;;;;;;5036889;28;20209;-70
2022/07/07 06:57:08;;;;;;;2.73;2.03;;;22.30;83.70;;;;;;5036342;28;20185;-68
2022/07/07 06:59:34;;;;;;;1.93;1.47;;;22.40;83.20;;;;;;5036779;28;20266;-69
2022/07/07 07:02:00;;;;;;;1.63;1.40;;;22.40;82.30;;;;;;5036893;28;20820;-67
2022/07/07 07:04:26;;;;;;;1.60;1.50;;;22.40;83.00;;;;;;5035143;28;20810;-67
2022/07/07 07:06:52;;;;;;;2.23;1.70;;;22.40;83.90;;;;;;5036916;28;20219;-68
2022/07/07 07:09:17;;;;;;;1.80;1.70;;;22.40;85.90;;;;;;5036462;28;20509;-69
2022/07/07 07:11:43;;;;;;;2.10;2.00;;;22.50;85.40;;;;;;5036435;28;20240;-70
2022/07/07 07:14:09;;;;;;;2.57;2.37;;;22.50;84.50;;;;;;5036071;28;20193;-67
2022/07/07 07:16:34;;;;;;;1.60;1.50;;;22.50;84.50;;;;;;5036483;28;20202;-69
2022/07/07 07:19:00;;;;;;;3.90;3.03;;;22.40;85.80;;;;;;5036152;28;20174;-65
2022/07/07 07:21:26;;;;;;;2.03;1.83;;;22.30;84.40;;;;;;5035936;28;20611;-70
2022/07/07 07:23:52;;;;;;;1.60;1.50;;;22.30;84.80;;;;;;5035763;28;20198;-68
2022/07/07 07:26:18;;;;;;;2.00;1.90;;;22.30;84.40;;;;;;5036289;28;20172;-69
2022/07/07 07:28:43;;;;;;;1.60;1.50;;;22.30;84.10;;;;;;5036071;28;20417;-69
2022/07/07 07:31:09;;;;;;;2.57;2.00;;;22.40;84.30;;;;;;5036408;28;20471;-69
2022/07/07 07:33:35;;;;;;;1.70;1.60;;;22.40;83.80;;;;;;5034566;28;20244;-69
2022/07/07 07:36:02;;;;;;;2.00;1.73;;;22.50;85.10;;;;;;5034495;28;20178;-67
2022/07/07 07:38:27;;;;;;;2.20;1.67;;;22.70;85.00;;;;;;5036183;28;20412;-66
2022/07/07 07:40:53;;;;;;;1.70;1.60;;;22.90;84.90;;;;;;5036131;28;20912;-68
2022/07/07 07:43:19;;;;;;;2.17;1.90;;;22.90;84.20;;;;;;5035756;28;20209;-70
2022/07/07 07:45:45;;;;;;;2.13;2.00;;;23.00;82.10;;;;;;5035341;28;20186;-67
2022/07/07 07:48:11;;;;;;;2.53;2.33;;;22.90;81.90;;;;;;5035645;28;20672;-67
2022/07/07 07:50:36;;;;;;;3.70;2.33;;;22.80;82.00;;;;;;5035868;28;20379;-66
2022/07/07 07:53:05;;;;;;;1.67;1.67;;;22.70;82.40;;;;;;5035412;28;20191;-67
2022/07/07 07:55:31;;;;;;;1.47;1.40;;;22.50;84.80;;;;;;5036289;28;20176;-69
2022/07/07 07:57:56;;;;;;;2.20;2.00;;;22.40;83.70;;;;;;5036023;28;20411;-69
2022/07/07 08:00:23;;;;;;;2.80;2.30;;;22.20;83.20;;;;;;5035411;28;20432;-73
2022/07/07 08:02:49;;;;;;;2.20;2.00;;;22.00;83.70;;;;;;5034133;28;20271;-64
2022/07/07 08:05:16;;;;;;;1.80;1.70;;;21.90;84.20;;;;;;5035421;28;20540;-63
2022/07/07 08:07:42;;;;;;;3.10;2.20;;;21.80;84.90;;;;;;5035204;28;20425;-63
2022/07/07 08:10:09;;;;;;;1.60;1.50;;;21.80;85.40;;;;;;5035801;28;20833;-66
2022/07/07 08:12:35;;;;;;;1.47;1.47;;;21.60;86.60;;;;;;5034808;28;20457;-64
2022/07/07 08:15:01;;;;;;;2.60;1.70;;;21.40;85.80;;;;;;5034449;28;20440;-65
2022/07/07 08:17:27;;;;;;;2.07;1.87;;;21.40;86.30;;;;;;5035241;28;20418;-63
2022/07/07 08:19:52;;;;;;;2.20;1.80;;;21.40;86.70;;;;;;5034950;28;20193;-64
2022/07/07 08:22:18;;;;;;;1.80;1.33;;;21.30;86.70;;;;;;5035314;28;20268;-64
2022/07/07 08:24:44;;;;;;;2.70;1.80;;;21.40;86.20;;;;;;5035368;28;20201;-64
2022/07/07 08:27:09;;;;;;;1.70;1.60;;;21.40;86.10;;;;;;5035160;28;20185;-64
2022/07/07 08:29:38;;;;;;;1.80;1.70;;;21.50;86.40;;;;;;5035391;28;20178;-64
2022/07/07 08:32:07;;;;;;;2.13;1.93;;;21.50;90.00;;;;;;5035162;28;20423;-65
2022/07/07 08:34:33;;;;;;;1.97;1.87;;;21.40;90.20;;;;;;5034607;28;20511;-64
2022/07/07 08:36:58;;;;;;;1.80;1.77;;;21.40;90.90;;;;;;5034132;28;20907;-70
2022/07/07 08:39:24;;;;;;;2.07;1.97;;;21.30;91.10;;;;;;5035373;28;20492;-65
2022/07/07 08:41:49;;;;;;;6.00;2.13;;;21.20;91.90;;;;;;5034728;28;20202;-67
2022/07/07 08:44:17;;;;;;;1.73;1.63;;;21.10;91.40;;;;;;5034144;28;20214;-65
2022/07/07 08:46:42;;;;;;;2.13;2.03;;;21.10;91.40;;;;;;5034051;28;20171;-67
2022/07/07 08:49:09;;;;;;;3.27;3.00;;;21.20;90.90;;;;;;5033876;28;20530;-67
2022/07/07 08:51:40;;;;;;;6.40;2.60;;;21.20;90.70;;;;;;5034665;28;20182;-66
2022/07/07 08:54:09;;;;;;;3.10;2.80;;;21.20;90.80;;;;;;5032728;28;20453;-65
2022/07/07 08:56:38;;;;;;;3.30;2.70;;;21.20;91.30;;;;;;5034429;28;20465;-69
2022/07/07 08:59:05;;;;;;;2.80;2.60;;;21.40;90.60;;;;;;5034633;28;20407;-68
2022/07/07 09:01:32;;;;;;;3.13;2.83;;;21.60;90.90;;;;;;5034824;28;20379;-65
2022/07/07 09:03:58;;;;;;;2.60;2.40;;;21.80;90.70;;;;;;5034014;28;20557;-64
2022/07/07 09:06:24;;;;;;;2.53;2.43;;;;;;;;;;5034450;28;20579;-65
2022/07/07 09:08:50;;;;;;;3.47;3.00;;;22.10;90.60;;;;;;5034818;28;20171;-64
2022/07/07 09:11:23;;;;;;;3.07;2.80;;;22.90;90.30;;;;;;5034060;28;20957;-65
2022/07/07 09:13:49;;;;;;;2.70;2.60;;;23.60;88.70;;;;;;5033724;28;20441;-64
2022/07/07 09:16:16;;;;;;;3.70;2.77;;;24.10;86.70;;;;;;5033197;28;20400;-65
2022/07/07 09:18:46;;;;;;;2.80;2.70;;;24.20;86.40;;;;;;5033733;28;20188;-65
2022/07/07 09:21:27;;;;;;;3.13;2.90;;;24.30;85.50;;;;;;5023243;28;20399;-67
2022/07/07 09:23:54;;;;;;;1.63;1.53;;;23.90;86.60;;;;;;5033253;28;20491;-65
2022/07/07 09:26:41;;;;;;;2.20;2.10;;;23.60;87.70;;;;;;5033026;28;20443;-64
2022/07/07 09:29:09;;;;;;;2.80;1.47;;;23.20;89.80;;;;;;5034134;28;20412;-66
2022/07/07 09:31:53;;;;;;;1.83;1.73;;;22.80;89.70;;;;;;5033614;28;20429;-66
2022/07/07 09:34:21;;;;;;;1.60;1.50;;;22.50;90.60;;;;;;5033596;28;20419;-65
2022/07/07 09:39:38;;;;;;;1.73;1.63;;;22.30;91.10;;;;;;5033466;28;20449;-67
2022/07/07 09:42:28;;;;;;;2.40;1.77;;;22.20;91.50;;;;;;5030539;28;20551;-65
2022/07/07 09:45:00;;;;;;;5.30;1.60;;;22.10;91.80;;;;;;5033453;28;20782;-66
2022/07/07 09:47:27;;;;;;;3.10;1.90;;;22.00;92.50;;;;;;5033884;28;20393;-68
2022/07/07 09:50:04;;;;;;;2.40;2.30;;;22.10;92.60;;;;;;5033454;28;20423;-66
2022/07/07 09:52:32;;;;;;;3.20;2.00;;;22.00;92.90;;;;;;5033290;28;20389;-70
2022/07/07 09:54:59;;;;;;;1.83;1.73;;;21.90;93.10;;;;;;5033593;28;20477;-69
2022/07/07 09:57:25;;;;;;;1.60;1.50;;;21.80;94.10;;;;;;5033687;28;20832;-69
2022/07/07 09:59:51;;;;;;;1.97;1.87;;;21.70;93.40;;;;;;5033442;28;20496;-68
2022/07/07 10:02:23;;;;;;;1.33;1.23;;;21.50;93.60;;;;;;5033246;28;20437;-69
2022/07/07 10:04:53;;;;;;;1.77;1.53;;;21.30;93.90;;;;;;5033359;28;20552;-67
2022/07/07 10:07:24;;;;;;;2.30;1.63;;;21.10;94.70;;;;;;5033908;28;20406;-69
2022/07/07 10:10:00;;;;;;;1.63;1.53;;;21.10;95.20;;;;;;5033655;28;20440;-69
2022/07/07 10:12:27;;;;;;;1.60;1.50;;;21.00;94.60;;;;;;5033529;28;20389;-67
2022/07/07 10:15:11;;;;;;;1.70;1.60;;;21.00;94.50;;;;;;5033524;28;20399;-69
2022/07/07 10:17:37;;;;;;;1.97;1.87;;;21.10;94.70;;;;;;5033020;28;20467;-68
2022/07/07 10:20:03;;;;;;;1.37;1.23;;;21.20;94.30;;;;;;5033475;28;20488;-68
2022/07/07 10:22:30;;;;;;;3.40;3.10;;;21.20;94.20;;;;;;5032918;28;20896;-68
2022/07/07 10:24:57;;;;;;;1.83;1.73;;;21.30;94.40;;;;;;5032974;28;20404;-70
2022/07/07 10:27:25;;;;;;;1.80;1.70;;;21.50;94.10;;;;;;5032885;28;20425;-68
2022/07/07 10:29:54;;;;;;;3.10;1.80;;;21.70;93.90;;;;;;5033607;28;20403;-67
2022/07/07 10:32:49;;;;;;;2.03;1.93;;;22.00;94.10;;;;;;5033022;28;20431;-67
2022/07/07 10:35:16;;;;;;;2.27;2.07;;;22.40;93.30;;;;;;5033172;28;20490;-68
2022/07/07 10:37:50;;;;;;;1.50;1.40;;;22.60;92.20;;;;;;5033040;28;20408;-68
2022/07/07 10:40:30;;;;;;;1.87;1.77;;;22.70;91.70;;;;;;5032687;28;20413;-63
2022/07/07 10:43:10;;;;;;;2.53;2.33;;;22.80;91.60;;;;;;5032845;28;20546;-60
2022/07/07 10:45:47;;;;;;;2.83;1.80;;;22.70;91.80;;;;;;5033348;28;20808;-61
2022/07/07 10:48:43;;;;;;;2.23;1.50;;;22.70;91.70;;;;;;5032872;28;20401;-61
2022/07/07 10:51:22;;;;;;;1.27;1.17;;;22.60;92.50;;;;;;5032643;28;20411;-61
2022/07/07 10:54:10;;;;;;;2.27;2.17;;;22.70;92.50;;;;;;5032602;28;20938;-61
2022/07/07 10:56:51;;;;;;;1.90;1.80;;;22.70;92.10;;;;;;5032984;28;20422;-63
2022/07/07 10:59:17;;;;;;;2.80;2.00;;;22.70;92.10;;;;;;5032699;28;20494;-68
2022/07/07 11:02:01;;;;;;;1.60;1.50;;;22.70;92.10;;;;;;5032602;28;20404;-65
2022/07/07 11:04:42;;;;;;;2.20;1.60;;;22.70;92.30;;;;;;5032409;28;20451;-64
2022/07/07 11:07:19;;;;;;;2.03;1.93;;;22.60;92.20;;;;;;5032556;28;20424;-63
2022/07/07 11:10:04;;;;;;;3.00;1.90;;;22.60;92.10;;;;;;5032567;28;20428;-63
2022/07/07 11:12:41;;;;;;;2.03;1.93;;;22.50;92.40;;;;;;5030996;28;20402;-63
2022/07/07 11:15:22;;;;;;;1.93;1.83;;;22.50;92.70;;;;;;5031315;28;20849;-63
2022/07/07 11:17:51;;;;;;;2.60;1.40;;;22.60;92.50;;;;;;5028080;28;20951;-64
2022/07/07 11:20:19;;;;;;;1.40;1.40;;;22.60;92.40;;;;;;5031369;28;20407;-64
2022/07/07 11:22:51;;;;;;;2.33;2.13;;;22.50;93.50;;;;;;5028265;28;20462;-62
2022/07/07 11:25:20;;;;;;;2.43;2.00;;;22.20;95.20;;;;;;5029968;28;20441;-64
2022/07/07 11:27:48;;;;;;;1.33;1.27;;;22.00;96.50;;;;;;5029239;28;20439;-63
2022/07/07 11:30:14;;;;;;;1.77;1.67;;;21.80;97.80;;;;;;5031308;28;20411;-64
2022/07/07 11:32:41;;;;;;;1.93;1.70;;;21.60;97.40;;;;;;5030886;28;20488;-64
2022/07/07 11:35:10;;;;;;;1.77;1.67;;;21.60;98.80;;;;;;5030834;28;20457;-62
2022/07/07 11:37:37;;;;;;;1.50;1.40;;;21.60;98.20;;;;;;5031958;28;20417;-64
2022/07/07 11:40:23;;;;;;;1.40;1.40;;;21.80;96.90;;;;;;5032420;28;20775;-63
2022/07/07 11:42:49;;;;;;;1.70;1.47;;;21.70;96.10;;;;;;5032574;28;20445;-63
2022/07/07 11:45:28;;;;;;;1.50;1.40;;;21.80;96.00;;;;;;5034884;28;20431;-64
2022/07/07 11:47:59;;;;;;;1.53;1.43;;;21.70;95.50;;;;;;5033637;28;20193;-64
2022/07/07 11:50:28;;;;;;;1.77;1.67;;;21.70;95.60;;;;;;5034172;28;20845;-64
2022/07/07 11:52:55;;;;;;;1.83;1.73;;;21.70;94.90;;;;;;5034378;28;20387;-65
2022/07/07 11:55:22;;;;;;;1.80;1.70;;;21.60;95.30;;;;;;5034798;28;20755;-63
2022/07/07 11:57:58;;;;;;;4.43;2.00;;;21.50;95.90;;;;;;5034837;28;20413;-63
2022/07/07 12:00:30;;;;;;;1.63;1.53;;;21.50;95.70;;;;;;5034736;28;20781;-63
2022/07/07 12:02:57;;;;;;;1.40;1.40;;;21.40;95.40;;;;;;5034947;28;20904;-63
2022/07/07 12:05:28;;;;;;;2.80;1.50;;;21.40;95.50;;;;;;5035948;28;20442;-68
2022/07/07 12:07:54;;;;;;;3.03;1.80;;;21.40;95.40;;;;;;5035844;28;20420;-65
2022/07/07 12:10:21;;;;;;;2.20;2.00;;;21.40;95.40;;;;;;5035766;28;20413;-64
2022/07/07 12:13:00;;;;;;;2.17;1.90;;;21.50;95.40;;;;;;5035448;28;20390;-64
2022/07/07 12:15:28;;;;;;;1.93;1.67;;;21.40;95.20;;;;;;5034151;28;20427;-64
2022/07/07 12:17:54;;;;;;;2.67;1.90;;;21.60;95.20;;;;;;5033888;28;20761;-63
2022/07/07 12:20:20;;;;;;;2.30;1.57;;;21.80;94.60;;;;;;5034345;28;20430;-62
2022/07/07 12:22:52;;;;;;;1.80;1.70;;;22.00;94.50;;;;;;5034715;28;20902;-64
2022/07/07 12:25:17;;;;;;;2.00;1.83;;;22.20;94.00;;;;;;5034227;28;20440;-63
2022/07/07 12:28:06;;;;;;;2.43;1.67;;;22.40;93.90;;;;;;5035286;28;20414;-63
2022/07/07 12:30:48;;;;;;;2.10;1.90;;;22.50;94.10;;;;;;5035326;28;20175;-64
2022/07/07 12:33:34;;;;;;;2.50;2.30;;;22.80;93.60;;;;;;5033994;28;20484;-64
2022/07/07 12:36:16;;;;;;;3.00;2.27;;;23.00;92.90;;;;;;5039430;28;20391;-66
2022/07/07 12:38:52;;;;;;;2.20;1.97;;;23.20;92.60;;;;;;5032571;28;20411;-64
2022/07/07 12:41:23;;;;;;;2.27;2.07;;;23.30;91.90;;;;;;5031647;28;20409;-64
2022/07/07 12:43:49;;;;;;;2.13;2.03;;;23.30;91.90;;;;;;5031393;28;21049;-65
2022/07/07 12:46:15;;;;;;;2.17;2.07;;;23.40;92.10;;;;;;5034131;28;20516;-61
2022/07/07 12:48:50;;;;;;;4.40;2.43;;;23.50;92.20;;;;;;5033177;28;20170;-65
2022/07/07 12:51:17;;;;;;;2.30;2.10;;;23.60;92.00;;;;;;5033480;28;20174;-61
2022/07/07 12:53:43;;;;;;;2.17;2.00;;;23.90;91.40;;;;;;5030169;28;20404;-62
2022/07/07 12:56:12;;;;;;;5.73;4.60;;;;;;;;;;5033456;28;20391;-61
2022/07/07 12:58:47;;;;;;;3.30;2.97;;;23.90;91.10;;;;;;5033150;28;20429;-61
2022/07/07 13:01:22;;;;;;;3.03;2.70;;;23.70;90.60;;;;;;5031262;28;20924;-62
2022/07/07 13:03:53;;;;;;;2.50;2.30;;;23.60;91.10;;;;;;5032989;28;20434;-61
2022/07/07 13:06:23;;;;;;;2.13;1.93;;;23.30;91.30;;;;;;5034563;28;20441;-62
2022/07/07 13:08:51;;;;;;;2.40;2.20;;;22.90;91.50;;;;;;5034390;28;20395;-62
2022/07/07 13:11:17;;;;;;;4.53;2.70;;;22.70;91.80;;;;;;5034555;28;20424;-62
2022/07/07 13:13:43;;;;;;;5.90;2.30;;;22.60;92.00;;;;;;5034113;28;20450;-62
2022/07/07 13:16:09;;;;;;;2.17;1.97;;;22.50;92.30;;;;;;5034000;28;20820;-61
2022/07/07 13:18:36;;;;;;;2.37;2.20;;;22.40;92.30;;;;;;5034063;28;20187;-62
2022/07/07 13:21:03;;;;;;;3.40;2.07;;;22.30;92.40;;;;;;5033624;28;20288;-63
2022/07/07 13:23:29;;;;;;;2.23;2.13;;;22.30;93.20;;;;;;5032930;28;20489;-65
2022/07/07 13:25:56;;;;;;;4.70;3.50;;;22.30;93.00;;;;;;5032420;28;20431;-62
2022/07/07 13:28:23;;;;;;;2.90;2.00;;;22.40;92.80;;;;;;5033600;28;20761;-63
2022/07/07 13:30:49;;;;;;;3.40;2.03;;;22.30;92.70;;;;;;5033764;28;20414;-65
2022/07/07 13:33:15;;;;;;;2.50;2.40;;;22.20;92.80;;;;;;5033607;28;20998;-67
2022/07/07 13:35:41;;;;;;;1.80;1.73;;;22.10;93.10;;;;;;5032972;28;20187;-65
2022/07/07 13:38:07;;;;;;;2.27;2.17;;;21.90;93.30;;;;;;5033994;28;20668;-64
2022/07/07 13:40:34;;;;;;;2.70;2.30;;;21.80;93.60;;;;;;5033936;28;20922;-65
2022/07/07 13:43:00;;;;;;;2.27;1.60;;;21.60;94.10;;;;;;5033476;28;20432;-65
2022/07/07 13:45:26;;;;;;;2.23;1.37;;;21.40;95.00;;;;;;5033614;28;21007;-62
2022/07/07 13:47:51;;;;;;;0.80;0.80;;;21.00;95.30;;;;;;5032952;28;20170;-71
2022/07/07 13:50:17;;;;;;;1.00;0.90;;;20.50;96.30;;;;;;5031120;28;20178;-70
2022/07/07 13:52:43;;;;;;;7.57;6.80;;;20.20;97.10;;;;;;5031532;28;20427;-70
2022/07/07 13:55:09;;;;;;;3.20;2.87;;;19.90;98.30;;;;;;5031119;28;20255;-69
2022/07/07 13:57:35;;;;;;;1.43;1.00;;;19.70;99.40;;;;;;5031652;28;20204;-68
2022/07/07 14:00:01;;;;;;;1.00;1.00;;;19.40;99.90;;;;;;5030887;28;20899;-69
2022/07/07 14:02:27;;;;;;;1.17;1.13;;;19.20;99.90;;;;;;5031670;28;20669;-64
2022/07/07 14:04:54;;;;;;;1.13;1.13;;;19.10;99.90;;;;;;5032894;28;20456;-62
2022/07/07 14:07:20;;;;;;;1.50;1.40;;;19.00;99.90;;;;;;5033850;28;20440;-64
2022/07/07 14:09:45;;;;;;;1.07;1.03;;;18.90;99.90;;;;;;5033533;28;20500;-64
2022/07/07 14:12:11;;;;;;;1.40;1.30;;;18.80;99.90;;;;;;5033244;28;20421;-62
2022/07/07 14:14:37;;;;;;;1.23;1.17;;;18.80;99.90;;;;;;5033430;28;20206;-63
2022/07/07 14:17:03;;;;;;;1.60;1.50;;;18.80;99.90;;;;;;5033486;28;20180;-64
2022/07/07 14:19:29;;;;;;;1.13;1.10;;;18.80;99.90;;;;;;5033531;28;20536;-64
2022/07/07 14:21:54;;;;;;;1.10;1.10;;;19.00;99.90;;;;;;5033451;28;20420;-64
2022/07/07 14:24:20;;;;;;;1.30;1.30;;;19.10;99.90;;;;;;5033037;28;20688;-62
2022/07/07 14:26:46;;;;;;;1.20;1.20;;;19.20;99.90;;;;;;5033465;28;20167;-62
2022/07/07 14:29:12;;;;;;;1.40;1.30;;;19.30;99.90;;;;;;5033524;28;20182;-64
2022/07/07 14:31:39;;;;;;;1.13;1.13;;;19.40;99.90;;;;;;5033276;28;20415;-62
2022/07/07 14:34:05;;;;;;;1.00;1.00;;;19.40;99.90;;;;;;5031594;28;20415;-69
2022/07/07 14:36:31;;;;;;;2.20;1.60;;;19.20;99.90;;;;;;5031877;28;20448;-60
2022/07/07 14:38:57;;;;;;;1.00;1.00;;;19.10;99.90;;;;;;5032969;28;20275;-63
2022/07/07 14:41:23;;;;;;;2.70;1.50;;;19.00;99.90;;;;;;5032931;28;20417;-64
2022/07/07 14:43:48;;;;;;;1.30;1.10;;;18.80;99.90;;;;;;5032656;28;20482;-62
2022/07/07 14:46:14;;;;;;;2.20;1.00;;;18.80;99.90;;;;;;5033287;28;20438;-62
2022/07/07 14:48:40;;;;;;;1.40;1.30;;;18.70;99.90;;;;;;5032793;28;20188;-65
2022/07/07 14:51:06;;;;;;;1.87;1.77;;;18.70;99.90;;;;;;5033118;28;20603;-62
2022/07/07 14:53:32;;;;;;;1.67;1.57;;;18.70;99.90;;;;;;5032662;28;20248;-65
2022/07/07 14:55:58;;;;;;;1.70;1.60;;;18.70;99.90;;;;;;5033291;28;20409;-65
2022/07/07 14:58:24;;;;;;;2.00;1.53;;;18.70;99.90;;;;;;5032992;28;20409;-65
2022/07/07 15:00:51;;;;;;;1.50;1.40;;;18.80;99.90;;;;;;5032866;28;20424;-67
2022/07/07 15:03:17;;;;;;;1.40;1.27;;;18.80;99.90;;;;;;5032558;28;20472;-71
2022/07/07 15:05:42;;;;;;;1.80;1.70;;;18.80;99.90;;;;;;5032451;28;20820;-66
2022/07/07 15:08:08;;;;;;;1.17;1.17;;;18.80;99.90;;;;;;5029012;28;20425;-66
2022/07/07 15:10:36;;;;;;;1.57;1.47;;;18.90;99.90;;;;;;5033563;28;20185;-68
2022/07/07 15:13:02;;;;;;;2.03;1.37;;;19.00;99.90;;;;;;5035648;28;20178;-67
2022/07/07 15:15:28;;;;;;;1.03;1.03;;;19.20;99.90;;;;;;5036826;28;20408;-65
2022/07/07 15:17:54;;;;;;;1.37;1.30;;;19.40;99.90;;;;;;5035859;28;20918;-65
2022/07/07 15:20:21;;;;;;;1.23;1.13;;;19.50;99.90;;;;;;5048615;28;20261;-66
2022/07/07 15:22:47;;;;;;;1.10;1.10;;;19.60;99.90;;;;;;5036192;28;20213;-66
2022/07/07 15:25:14;;;;;;;1.10;1.10;;;19.70;99.90;;;;;;5034992;28;20448;-69
2022/07/07 15:27:40;;;;;;;1.27;1.27;;;19.80;99.90;;;;;;5036141;28;20511;-64
2022/07/07 15:30:06;;;;;;;1.73;1.63;;;19.80;99.90;;;;;;5036558;28;20421;-67
2022/07/07 15:32:32;;;;;;;2.10;1.23;;;19.80;99.90;;;;;;5036333;28;20426;-66
2022/07/07 15:34:57;;;;;;;1.80;1.43;;;19.90;99.90;;;;;;5036165;28;20436;-69
2022/07/07 15:37:23;;;;;;;1.10;1.10;;;19.90;99.90;;;;;;5036034;28;20170;-70
2022/07/07 15:39:49;;;;;;;1.50;1.40;;;19.90;99.90;;;;;;5036289;28;20224;-70
2022/07/07 15:42:18;;;;;;;1.10;1.10;;;19.90;99.90;;;;;;5035945;28;20194;-71
2022/07/07 15:44:44;;;;;;;1.50;1.40;;;20.00;99.90;;;;;;5036375;28;20207;-67
2022/07/07 15:47:10;;;;;;;1.77;1.67;;;20.10;99.90;;;;;;5035362;28;20402;-66
2022/07/07 15:49:35;;;;;;;1.13;1.10;;;20.10;99.90;;;;;;5033525;28;20220;-68
2022/07/07 15:52:01;;;;;;;2.83;1.57;;;20.20;99.90;;;;;;5034088;28;20236;-66
2022/07/07 15:54:27;;;;;;;1.60;1.50;;;20.30;99.90;;;;;;5033588;28;20762;-68
2022/07/07 15:56:53;;;;;;;1.20;1.20;;;20.30;99.90;;;;;;5029252;28;20463;-67
2022/07/07 15:59:18;;;;;;;1.10;1.10;;;20.30;99.90;;;;;;5035316;28;20205;-67
2022/07/07 16:01:44;;;;;;;1.30;1.30;;;20.30;99.90;;;;;;5034910;28;20211;-67
2022/07/07 16:06:54;;;;;;;1.10;1.10;;;20.30;99.90;;;;;;5035910;28;20181;-67
2022/07/07 16:09:19;;;;;;;1.30;1.30;;;20.40;99.90;;;;;;5036058;28;20384;-63
2022/07/07 16:11:45;;;;;;;1.73;1.10;;;20.40;99.90;;;;;;5035974;28;20699;-64
2022/07/07 16:14:11;;;;;;;2.10;2.00;;;20.40;99.90;;;;;;5035085;28;20210;-68
2022/07/07 16:16:37;;;;;;;1.10;1.10;;;20.30;99.90;;;;;;5035363;28;20244;-62
2022/07/07 16:19:03;;;;;;;1.40;1.37;;;20.30;99.90;;;;;;5035670;28;20179;-64
2022/07/07 16:21:28;;;;;;;3.40;1.20;;;20.30;99.90;;;;;;5035458;28;20409;-63
2022/07/07 16:23:54;;;;;;;1.13;1.03;;;20.40;99.90;;;;;;5033115;28;20589;-69
2022/07/07 16:26:21;;;;;;;1.83;1.73;;;20.40;99.90;;;;;;5033321;28;20174;-70
2022/07/07 16:28:47;;;;;;;1.27;1.27;;;20.40;99.90;;;;;;5035247;28;20763;-74
2022/07/07 16:31:13;;;;;;;1.27;1.27;;;20.50;99.90;;;;;;5034431;28;20797;-72
2022/07/07 16:33:39;;;;;;;0.90;0.90;;;20.60;99.90;;;;;;5034766;28;20400;-67
2022/07/07 16:36:05;;;;;;;1.03;1.03;;;20.70;99.90;;;;;;5035365;28;20419;-70
2022/07/07 16:38:32;;;;;;;1.40;1.30;;;20.70;99.90;;;;;;5035301;28;20752;-69
2022/07/07 16:40:59;;;;;;;1.47;1.43;;;20.80;99.90;;;;;;5034746;28;20431;-67
2022/07/07 16:43:31;;;;;;;1.40;1.30;;;20.80;99.90;;;;;;5034773;28;20873;-67
2022/07/07 16:45:57;;;;;;;1.27;1.20;;;20.80;98.60;;;;;;5033411;28;20426;-68
2022/07/07 16:48:28;;;;;;;1.73;1.13;;;20.90;98.10;;;;;;5034306;28;20422;-68
2022/07/07 16:50:54;;;;;;;0.97;0.97;;;20.80;97.40;;;;;;5034636;28;20524;-68
2022/07/07 16:53:20;;;;;;;1.40;1.40;;;20.80;97.40;;;;;;5033627;28;20464;-68
2022/07/07 16:55:46;;;;;;;1.30;1.30;;;20.80;97.20;;;;;;5035000;28;20178;-68
2022/07/07 16:58:12;;;;;;;2.63;1.50;;;20.80;96.80;;;;;;5034289;28;20793;-69
2022/07/07 17:00:38;;;;;;;1.60;1.50;;;20.70;97.00;;;;;;5034550;28;20440;-68